Time;durP1;ratioP1;P1;durP2;ratioP2;P2;SDS_P1;SDS_P2;PMS_P1;PMS_P2;Temp;Humidity;BMP_temperature;BMP_pressure;BME280_temperature;BME280_humidity;BME280_pressure;Samples;Min_cycle;Max_cycle;Signal;HPM_P1;HPM_P2
2021/05/13 00:01:20;;;;;;;;;;;12.20;99.90;;;;;;5065371;28;20364;-56
2021/05/13 00:03:46;;;;;;;;;;;12.30;99.90;;;;;;5065713;28;20340;-56
2021/05/13 00:06:11;;;;;;;;;;;12.20;99.90;;;;;;5065230;28;19913;-56
2021/05/13 00:08:37;;;;;;;;;;;12.20;99.90;;;;;;5067487;28;20444;-57
2021/05/13 00:11:04;;;;;;;;;;;12.20;99.90;;;;;;5066044;28;19969;-56
2021/05/13 00:13:34;;;;;;;;;;;12.20;99.90;;;;;;5065721;28;19977;-56
2021/05/13 00:16:05;;;;;;;;;;;12.20;99.90;;;;;;5063533;28;20303;-56
2021/05/13 00:18:31;;;;;;;;;;;12.10;99.90;;;;;;5066094;28;19952;-56
2021/05/13 00:20:59;;;;;;;;;;;12.10;99.90;;;;;;5065884;28;21862;-56
2021/05/13 00:23:25;;;;;;;;;;;12.10;99.90;;;;;;5065682;28;19955;-56
2021/05/13 00:25:51;;;;;;;;;;;12.10;99.90;;;;;;5065782;28;19916;-57
2021/05/13 00:28:21;;;;;;;;;;;12.00;99.90;;;;;;5065069;28;20411;-55
2021/05/13 00:30:49;;;;;;;;;;;12.00;99.90;;;;;;5050866;28;20300;-56
2021/05/13 00:33:18;;;;;;;;;;;11.90;99.90;;;;;;5066027;28;20081;-56
2021/05/13 00:35:45;;;;;;;;;;;11.80;99.90;;;;;;5065706;28;19924;-56
2021/05/13 00:38:11;;;;;;;;;;;11.70;99.90;;;;;;5064968;28;19928;-56
2021/05/13 00:40:36;;;;;;;;;;;11.60;99.90;;;;;;5064094;28;20592;-56
2021/05/13 00:43:02;;;;;;;;;;;11.60;99.90;;;;;;5070157;28;19912;-56
2021/05/13 00:45:30;;;;;;;;;;;11.60;99.90;;;;;;5069497;28;19917;-56
2021/05/13 00:50:24;;;;;;;;;;;11.60;99.90;;;;;;5068618;28;19916;-57
2021/05/13 00:52:50;;;;;;;;;;;11.50;99.90;;;;;;5066350;28;20002;-56
2021/05/13 00:55:17;;;;;;;;;;;11.40;99.90;;;;;;5069234;28;19923;-56
2021/05/13 00:57:45;;;;;;;;;;;11.40;99.90;;;;;;5068673;28;19920;-56
2021/05/13 01:02:58;;;;;;;;;;;11.40;99.90;;;;;;5069712;28;20041;-56
2021/05/13 01:05:25;;;;;;;;;;;11.30;99.90;;;;;;5068279;28;20493;-56
2021/05/13 01:07:50;;;;;;;;;;;11.30;99.90;;;;;;5067088;28;19916;-58
2021/05/13 01:10:17;;;;;;;;;;;11.20;99.90;;;;;;5067364;28;20677;-55
2021/05/13 01:12:42;;;;;;;;;;;11.20;99.90;;;;;;5068437;28;20478;-55
2021/05/13 01:15:09;;;;;;;;;;;11.20;99.90;;;;;;5068520;28;19917;-56
2021/05/13 01:17:54;;;;;;;;;;;11.20;99.90;;;;;;5067870;28;19924;-56
2021/05/13 01:20:22;;;;;;;;;;;11.20;99.90;;;;;;5069310;28;20007;-56
2021/05/13 01:22:47;;;;;;;;;;;11.20;99.90;;;;;;5068800;28;19916;-56
2021/05/13 01:25:15;;;;;;;;;;;11.10;99.90;;;;;;5068517;28;19923;-56
2021/05/13 01:27:41;;;;;;;;;;;11.00;99.90;;;;;;5066885;28;21798;-56
2021/05/13 01:30:07;;;;;;;;;;;11.10;99.90;;;;;;5065333;28;20058;-56
2021/05/13 01:32:37;;;;;;;;;;;11.10;99.90;;;;;;5083784;28;20030;-56
2021/05/13 01:35:05;;;;;;;;;;;11.00;99.90;;;;;;5068241;28;19916;-56
2021/05/13 01:37:31;;;;;;;;;;;10.90;99.90;;;;;;5068185;28;19920;-56
2021/05/13 01:39:56;;;;;;;;;;;10.80;99.90;;;;;;5068608;28;19962;-56
2021/05/13 01:42:22;;;;;;;;;;;10.80;99.90;;;;;;5068505;28;19947;-55
2021/05/13 01:44:47;;;;;;;;;;;10.80;99.90;;;;;;5067891;28;19926;-55
2021/05/13 01:47:13;;;;;;;;;;;10.80;99.90;;;;;;5068430;28;19913;-56
2021/05/13 01:49:39;;;;;;;;;;;10.70;99.90;;;;;;5066671;28;19916;-56
2021/05/13 01:52:04;;;;;;;;;;;10.70;99.90;;;;;;5067642;28;20276;-56
2021/05/13 01:54:30;;;;;;;;;;;10.60;99.90;;;;;;5067855;28;19923;-56
2021/05/13 01:57:05;;;;;;;;;;;10.50;99.90;;;;;;5066819;28;19954;-56
2021/05/13 01:59:31;;;;;;;;;;;10.50;99.90;;;;;;5068114;28;19985;-56
2021/05/13 02:02:00;;;;;;;;;;;10.50;99.90;;;;;;5067735;28;21726;-56
2021/05/13 02:04:26;;;;;;;;;;;10.50;99.90;;;;;;5066831;28;19952;-56
2021/05/13 02:06:51;;;;;;;;;;;10.50;99.90;;;;;;5069357;28;20027;-56
2021/05/13 02:09:19;;;;;;;;;;;10.50;99.90;;;;;;5067396;28;19947;-56
2021/05/13 02:11:44;;;;;;;;;;;10.40;99.90;;;;;;5067373;28;20471;-55
2021/05/13 02:14:10;;;;;;;;;;;10.40;99.90;;;;;;5068553;28;19928;-55
2021/05/13 02:16:36;;;;;;;;;;;10.40;99.90;;;;;;5067682;28;19962;-55
2021/05/13 02:19:03;;;;;;;;;;;10.40;99.90;;;;;;5067567;28;20280;-56
2021/05/13 02:21:29;;;;;;;;;;;10.40;99.90;;;;;;5067414;28;20253;-56
2021/05/13 02:23:54;;;;;;;;;;;10.40;99.90;;;;;;5066839;28;19912;-56
2021/05/13 02:26:20;;;;;;;;;;;10.40;99.90;;;;;;5067019;28;19959;-56
2021/05/13 02:28:49;;;;;;;;;;;10.50;99.90;;;;;;5069506;28;20345;-56
2021/05/13 02:31:15;;;;;;;;;;;10.50;99.90;;;;;;5066056;28;19926;-56
2021/05/13 02:33:41;;;;;;;;;;;10.50;99.90;;;;;;5067136;28;19916;-56
2021/05/13 02:36:08;;;;;;;;;;;10.40;99.90;;;;;;5083479;28;19951;-56
2021/05/13 02:38:33;;;;;;;;;;;10.50;99.90;;;;;;5066548;28;19920;-56
2021/05/13 02:40:59;;;;;;;;;;;10.40;99.90;;;;;;5065366;28;19916;-56
2021/05/13 02:43:27;;;;;;;;;;;10.50;99.90;;;;;;5066249;28;19916;-56
2021/05/13 02:45:52;;;;;;;;;;;10.50;99.90;;;;;;5066398;28;19923;-56
2021/05/13 02:48:20;;;;;;;;;;;10.50;99.90;;;;;;5066252;28;19916;-56
2021/05/13 02:50:46;;;;;;;;;;;10.40;99.90;;;;;;5067150;28;19923;-56
2021/05/13 02:53:13;;;;;;;;;;;10.30;99.90;;;;;;5066320;28;19916;-56
2021/05/13 02:55:38;;;;;;;;;;;10.30;99.90;;;;;;5065742;28;20377;-56
2021/05/13 02:58:05;;;;;;;;;;;10.30;99.90;;;;;;5068289;28;19923;-56
2021/05/13 03:03:24;;;;;;;;;;;10.30;99.90;;;;;;5063445;28;19925;-56
2021/05/13 03:05:55;;;;;;;;;;;10.30;99.90;;;;;;5064305;28;19946;-56
2021/05/13 03:08:21;;;;;;;;;;;10.30;99.90;;;;;;5065974;28;19916;-56
2021/05/13 03:10:47;;;;;;;;;;;10.20;99.90;;;;;;5066354;28;19923;-56
2021/05/13 03:13:23;;;;;;;;;;;10.20;99.90;;;;;;5066710;28;19926;-56
2021/05/13 03:15:52;;;;;;;;;;;10.30;99.90;;;;;;5065446;28;20353;-56
2021/05/13 03:18:18;;;;;;;;;;;10.20;99.90;;;;;;5065170;28;19912;-56
2021/05/13 03:20:50;;;;;;;;;;;10.30;99.90;;;;;;5080487;28;19912;-56
2021/05/13 03:23:24;;;;;;;;;;;10.30;99.90;;;;;;5065591;28;20014;-56
2021/05/13 03:25:56;;;;;;;;;;;10.30;99.90;;;;;;5062123;28;19917;-56
2021/05/13 03:28:25;;;;;;;;;;;10.40;99.90;;;;;;5064198;28;19916;-56
2021/05/13 03:30:51;;;;;;;;;;;10.40;99.90;;;;;;5062987;28;19911;-56
2021/05/13 03:33:17;;;;;;;;;;;10.40;99.90;;;;;;5065483;28;19908;-56
2021/05/13 03:35:45;;;;;;;;;;;10.50;99.90;;;;;;5065979;28;20121;-56
2021/05/13 03:38:13;;;;;;;;;;;10.40;99.90;;;;;;5063846;28;19931;-56
2021/05/13 03:40:39;;;;;;;;;;;10.50;99.90;;;;;;5065646;28;19912;-56
2021/05/13 03:43:10;;;;;;;;;;;10.50;99.90;;;;;;5097546;27;20049;-56
2021/05/13 03:45:35;;;;;;;;;;;10.40;99.90;;;;;;5067236;28;19916;-56
2021/05/13 03:48:04;;;;;;;;;;;10.50;99.90;;;;;;5066225;28;20575;-56
2021/05/13 03:50:31;;;;;;;;;;;10.40;99.90;;;;;;5065169;28;19919;-56
2021/05/13 03:52:57;;;;;;;;;;;10.40;99.90;;;;;;5064436;28;19912;-56
2021/05/13 03:55:23;;;;;;;;;;;10.40;99.90;;;;;;5065061;28;19927;-56
2021/05/13 03:57:53;;;;;;;;;;;10.30;99.90;;;;;;5065245;28;19919;-57
2021/05/13 04:00:28;;;;;;;;;;;10.20;99.90;;;;;;5062530;28;20257;-56
2021/05/13 04:02:53;;;;;;;;;;;10.20;99.90;;;;;;5065982;28;19924;-55
2021/05/13 04:05:21;;;;;;;;;;;10.10;99.90;;;;;;5064631;28;19966;-55
2021/05/13 04:07:48;;;;;;;;;;;10.20;99.90;;;;;;5064336;28;19920;-55
2021/05/13 04:10:14;;;;;;;;;;;10.30;99.90;;;;;;5066224;28;19966;-56
2021/05/13 04:12:40;;;;;;;;;;;10.30;99.90;;;;;;5081339;28;19912;-57
2021/05/13 04:15:06;;;;;;;;;;;10.20;99.90;;;;;;5070262;28;19916;-55
2021/05/13 04:17:32;;;;;;;;;;;10.20;99.90;;;;;;5069983;28;21717;-55
2021/05/13 04:19:57;;;;;;;;;;;10.10;99.90;;;;;;5066617;28;19920;-56
2021/05/13 04:22:23;;;;;;;;;;;10.10;99.90;;;;;;5069950;28;20057;-55
2021/05/13 04:24:48;;;;;;;;;;;10.20;99.90;;;;;;5069890;28;19922;-55
2021/05/13 04:27:14;;;;;;;;;;;10.20;99.90;;;;;;5069455;28;19927;-55
2021/05/13 04:29:42;;;;;;;;;;;10.20;99.90;;;;;;5066582;28;20665;-55
2021/05/13 04:32:07;;;;;;;;;;;10.30;99.90;;;;;;5068645;28;19937;-59
2021/05/13 04:34:33;;;;;;;;;;;10.30;99.90;;;;;;5067667;28;20037;-55
2021/05/13 04:36:58;;;;;;;;;;;10.30;99.90;;;;;;5069587;28;20785;-55
2021/05/13 04:39:24;;;;;;;;;;;10.30;99.90;;;;;;5067065;28;19923;-56
2021/05/13 04:41:50;;;;;;;;;;;10.30;99.90;;;;;;5069587;28;19972;-56
2021/05/13 04:44:16;;;;;;;;;;;10.30;99.90;;;;;;5068506;28;20331;-56
2021/05/13 04:46:41;;;;;;;;;;;10.30;99.90;;;;;;5084020;28;19917;-56
2021/05/13 04:51:36;;;;;;;;;;;10.40;99.90;;;;;;5069911;28;20316;-56
2021/05/13 04:54:04;;;;;;;;;;;10.40;99.90;;;;;;5055069;28;19965;-56
2021/05/13 04:56:32;;;;;;;;;;;10.50;99.90;;;;;;5069293;28;19912;-56
2021/05/13 04:58:59;;;;;;;;;;;10.50;99.90;;;;;;5068796;28;19927;-56
2021/05/13 05:01:27;;;;;;;;;;;10.60;99.90;;;;;;5067661;28;20264;-56
2021/05/13 05:03:54;;;;;;;;;;;10.60;99.90;;;;;;5067938;28;19977;-55
2021/05/13 05:06:22;;;;;;;;;;;10.60;99.90;;;;;;5068923;28;20097;-56
2021/05/13 05:08:48;;;;;;;;;;;10.70;99.90;;;;;;5068627;28;19962;-55
2021/05/13 05:11:16;;;;;;;;;;;10.80;99.90;;;;;;5066043;28;19916;-56
2021/05/13 05:13:41;;;;;;;;;;;10.70;99.90;;;;;;5067045;28;19916;-56
2021/05/13 05:16:07;;;;;;;;;;;10.70;99.90;;;;;;5067725;28;21728;-56
2021/05/13 05:18:35;;;;;;;;;;;10.70;99.90;;;;;;5065705;28;19974;-56
2021/05/13 05:21:02;;;;;;;;;;;10.80;99.90;;;;;;5067787;28;19912;-56
2021/05/13 05:23:30;;;;;;;;;;;10.70;99.90;;;;;;5068952;28;19920;-56
2021/05/13 05:25:56;;;;;;;;;;;10.60;99.90;;;;;;5068410;28;20007;-56
2021/05/13 05:28:24;;;;;;;;;;;10.60;99.90;;;;;;5068338;28;19999;-55
2021/05/13 05:30:50;;;;;;;;;;;10.60;99.90;;;;;;5068268;28;21803;-56
2021/05/13 05:33:15;;;;;;;;;;;10.60;99.90;;;;;;5068261;28;19920;-56
2021/05/13 05:35:41;;;;;;;;;;;10.70;99.90;;;;;;5065592;28;20379;-56
2021/05/13 05:38:07;;;;;;;;;;;11.00;99.90;;;;;;5067632;28;19916;-56
2021/05/13 05:40:33;;;;;;;;;;;11.20;99.90;;;;;;5069011;28;19916;-55
2021/05/13 05:42:58;;;;;;;;;;;11.30;99.90;;;;;;5070018;28;19999;-56
2021/05/13 05:45:25;;;;;;;;;;;11.10;99.90;;;;;;5071752;28;19916;-59
2021/05/13 05:47:59;;;;;;;;;;;11.10;99.90;;;;;;5067993;28;19929;-56
2021/05/13 05:50:29;;;;;;;;;;;11.00;99.90;;;;;;5084311;28;19940;-55
2021/05/13 05:52:57;;;;;;;;;;;11.10;99.90;;;;;;5068396;28;19947;-57
2021/05/13 05:55:23;;;;;;;;;;;11.20;99.90;;;;;;5066820;28;19912;-57
2021/05/13 05:57:48;;;;;;;;;;;11.20;99.90;;;;;;5067385;28;19977;-57
2021/05/13 06:00:14;;;;;;;;;;;11.30;99.90;;;;;;5067378;28;20328;-58
2021/05/13 06:02:40;;;;;;;;;;;11.30;99.90;;;;;;5067189;28;20023;-55
2021/05/13 06:05:06;;;;;;;;;;;11.30;99.90;;;;;;5064867;28;19917;-56
2021/05/13 06:07:32;;;;;;;;;;;11.40;99.90;;;;;;5068161;28;19916;-57
2021/05/13 06:09:58;;;;;;;;;;;11.40;99.90;;;;;;5053644;28;19920;-57
2021/05/13 06:12:23;;;;;;;;;;;11.40;99.90;;;;;;5065242;28;19978;-57
2021/05/13 06:14:50;;;;;;;;;;;11.60;99.90;;;;;;5067033;28;19916;-57
2021/05/13 06:17:15;;;;;;;;;;;11.60;99.90;;;;;;5067059;28;19988;-57
2021/05/13 06:19:41;;;;;;;;;;;11.80;99.90;;;;;;5067293;28;20189;-57
2021/05/13 06:22:07;;;;;;;;;;;11.90;99.90;;;;;;5067510;28;20007;-57
2021/05/13 06:24:32;;;;;;;;;;;12.10;99.90;;;;;;5066689;28;19908;-58
2021/05/13 06:26:59;;;;;;;;;;;12.30;99.90;;;;;;5067532;28;19966;-57
2021/05/13 06:29:28;;;;;;;;;;;12.40;99.90;;;;;;5066442;28;19916;-57
2021/05/13 06:31:56;;;;;;;;;;;12.40;99.90;;;;;;5066996;28;19912;-58
2021/05/13 06:34:22;;;;;;;;;;;12.30;99.90;;;;;;5067598;28;19917;-57
2021/05/13 06:36:50;;;;;;;;;;;12.30;99.90;;;;;;5066866;28;19989;-57
2021/05/13 06:39:15;;;;;;;;;;;12.40;99.90;;;;;;5081211;28;19916;-58
2021/05/13 06:41:42;;;;;;;;;;;12.50;99.90;;;;;;5082407;28;20804;-57
2021/05/13 06:44:08;;;;;;;;;;;12.70;99.90;;;;;;5065114;28;20843;-57
2021/05/13 06:46:36;;;;;;;;;;;12.80;99.90;;;;;;5065736;28;19962;-57
2021/05/13 06:49:02;;;;;;;;;;;12.70;99.90;;;;;;5066664;28;20398;-57
2021/05/13 06:51:28;;;;;;;;;;;12.80;99.90;;;;;;5067524;28;19916;-57
2021/05/13 06:53:56;;;;;;;;;;;12.80;99.90;;;;;;5066610;28;19912;-57
2021/05/13 06:56:22;;;;;;;;;;;12.70;99.90;;;;;;5066922;28;19916;-57
2021/05/13 06:58:48;;;;;;;;;;;12.80;99.90;;;;;;5066878;28;19973;-57
2021/05/13 07:01:15;;;;;;;;;;;12.80;99.90;;;;;;5066682;28;19967;-57
2021/05/13 07:03:42;;;;;;;;;;;12.90;99.90;;;;;;5069476;28;19931;-58
2021/05/13 07:06:10;;;;;;;;;;;13.00;99.90;;;;;;5065841;28;19969;-57
2021/05/13 07:08:37;;;;;;;;;;;13.10;99.90;;;;;;5065987;28;19916;-57
2021/05/13 07:11:03;;;;;;;;;;;13.10;99.90;;;;;;5065461;28;20268;-57
2021/05/13 07:13:29;;;;;;;;;;;13.10;99.90;;;;;;5069640;28;19916;-61
2021/05/13 07:15:59;;;;;;;;;;;13.20;99.90;;;;;;5071114;28;20405;-57
2021/05/13 07:18:25;;;;;;;;;;;13.20;99.90;;;;;;5065787;28;19923;-57
2021/05/13 07:20:52;;;;;;;;;;;13.40;99.90;;;;;;5064659;28;19916;-57
2021/05/13 07:23:17;;;;;;;;;;;13.50;99.90;;;;;;5063234;28;20260;-57
2021/05/13 07:25:43;;;;;;;;;;;13.60;99.90;;;;;;5065350;28;19965;-57
2021/05/13 07:28:09;;;;;;;;;;;13.60;99.90;;;;;;5051721;28;19916;-57
2021/05/13 07:30:35;;;;;;;;;;;13.70;99.90;;;;;;5065936;28;19923;-57
2021/05/13 07:33:03;;;;;;;;;;;13.80;99.90;;;;;;5065967;28;20356;-58
2021/05/13 07:35:28;;;;;;;;;;;14.00;99.90;;;;;;5065844;28;19978;-57
2021/05/13 07:37:54;;;;;;;;;;;14.10;99.90;;;;;;5065087;28;19920;-57
2021/05/13 07:40:21;;;;;;;;;;;14.30;99.90;;;;;;5064479;28;19912;-58
2021/05/13 07:42:47;;;;;;;;;;;14.20;99.90;;;;;;5081207;28;19912;-57
2021/05/13 07:45:16;;;;;;;;;;;14.20;99.90;;;;;;5064726;28;19934;-57
2021/05/13 07:47:42;;;;;;;;;;;14.30;99.90;;;;;;5066291;28;19940;-57
2021/05/13 07:50:09;;;;;;;;;;;14.40;99.90;;;;;;5064786;28;20348;-57
2021/05/13 07:52:35;;;;;;;;;;;14.60;99.90;;;;;;5068185;28;20015;-57
2021/05/13 07:55:03;;;;;;;;;;;14.70;99.90;;;;;;5065103;28;20489;-58
2021/05/13 07:57:28;;;;;;;;;;;14.70;99.90;;;;;;5065862;28;20015;-57
2021/05/13 07:59:54;;;;;;;;;;;14.90;99.90;;;;;;5063184;28;19961;-56
2021/05/13 08:02:19;;;;;;;;;;;15.00;99.90;;;;;;5062826;28;19956;-56
2021/05/13 08:04:48;;;;;;;;;;;15.20;99.90;;;;;;5065963;28;19912;-56
2021/05/13 08:07:14;;;;;;;;;;;15.30;99.90;;;;;;5063553;28;19928;-56
2021/05/13 08:09:39;;;;;;;;;;;15.50;99.90;;;;;;5065137;28;19912;-57
2021/05/13 08:12:05;;;;;;;;;;;15.60;99.90;;;;;;5065076;28;19924;-57
2021/05/13 08:14:33;;;;;;;;;;;15.70;99.90;;;;;;5065299;28;19923;-57
2021/05/13 08:16:59;;;;;;;;;;;15.80;99.90;;;;;;5065023;28;19927;-56
2021/05/13 08:19:25;;;;;;;;;;;15.90;99.90;;;;;;5065403;28;19916;-56
2021/05/13 08:21:53;;;;;;;;;;;16.00;99.50;;;;;;5063162;28;20363;-56
2021/05/13 08:24:18;;;;;;;;;;;16.00;98.30;;;;;;5065429;28;19912;-56
2021/05/13 08:26:48;;;;;;;;;;;16.10;98.00;;;;;;5065361;28;19923;-56
2021/05/13 08:29:14;;;;;;;;;;;16.10;98.20;;;;;;5063078;28;20038;-56
2021/05/13 08:31:40;;;;;;;;;;;16.20;98.90;;;;;;5053001;28;19977;-56
2021/05/13 08:34:06;;;;;;;;;;;16.20;97.50;;;;;;5065267;28;20364;-55
2021/05/13 08:36:31;;;;;;;;;;;16.20;97.10;;;;;;5063662;28;19948;-55
2021/05/13 08:38:57;;;;;;;;;;;16.20;97.10;;;;;;5060456;28;19920;-55
2021/05/13 08:41:22;;;;;;;;;;;16.30;96.20;;;;;;5079987;28;20382;-56
2021/05/13 08:43:52;;;;;;;;;;;16.30;96.80;;;;;;5064396;28;19916;-56
2021/05/13 08:46:21;;;;;;;;;;;16.40;96.00;;;;;;5064678;28;19923;-56
2021/05/13 08:48:47;;;;;;;;;;;16.40;95.90;;;;;;5066565;28;19968;-56
2021/05/13 08:51:13;;;;;;;;;;;16.40;95.50;;;;;;5067546;28;19916;-57
2021/05/13 08:53:54;;;;;;;;;;;16.40;95.00;;;;;;5064423;28;20005;-56
2021/05/13 08:56:20;;;;;;;;;;;16.40;94.60;;;;;;5064666;28;19911;-55
2021/05/13 08:58:46;;;;;;;;;;;16.40;95.20;;;;;;5064851;28;19923;-56
2021/05/13 09:01:15;;;;;;;;;;;16.40;95.80;;;;;;5063770;28;20621;-56
2021/05/13 09:03:41;;;;;;;;;;;16.50;95.20;;;;;;5084090;28;20579;-56
2021/05/13 09:06:07;;;;;;;;;;;16.50;95.40;;;;;;5069034;28;19926;-56
2021/05/13 09:08:35;;;;;;;;;;;16.60;95.00;;;;;;5069747;28;19912;-56
2021/05/13 09:11:11;;;;;;;;;;;16.70;94.50;;;;;;5068687;28;20417;-56
2021/05/13 09:13:40;;;;;;;;;;;16.90;94.40;;;;;;5066259;28;19916;-56
2021/05/13 09:16:47;;;;;;;;;;;17.00;94.20;;;;;;5069223;28;19912;-55
2021/05/13 09:19:20;;;;;;;;;;;17.10;94.10;;;;;;5064530;28;20061;-56
2021/05/13 09:21:50;;;;;;;;;;;17.20;93.30;;;;;;5066474;28;20002;-56
2021/05/13 09:24:36;;;;;;;;;;;17.30;92.30;;;;;;5066740;28;19916;-56
2021/05/13 09:27:15;;;;;;;;;;;17.30;91.30;;;;;;5082572;28;19923;-56
2021/05/13 09:29:40;;;;;;;;;;;17.30;88.20;;;;;;5048649;28;19916;-56
2021/05/13 09:32:20;;;;;;;;;;;17.30;84.40;;;;;;5064499;28;19923;-55
2021/05/13 09:34:48;;;;;;;;;;;17.30;83.70;;;;;;5064714;28;19912;-56
2021/05/13 09:37:14;;;;;;;;;;;17.20;81.80;;;;;;5064458;28;19986;-56
2021/05/13 09:39:44;;;;;;;;;;;17.20;81.90;;;;;;5064050;28;19990;-56
2021/05/13 09:42:10;;;;;;;;;;;17.40;78.60;;;;;;5046258;28;19922;-56
2021/05/13 09:44:39;;;;;;;;;;;17.50;76.00;;;;;;5064844;28;19916;-56
2021/05/13 09:47:19;;;;;;;;;;;17.50;80.20;;;;;;5065679;28;19946;-56
2021/05/13 09:50:15;;;;;;;;;;;17.60;78.60;;;;;;5066265;28;20364;-58
2021/05/13 09:52:42;;;;;;;;;;;17.80;74.80;;;;;;5061724;28;19912;-56
2021/05/13 09:55:12;;;;;;;;;;;17.90;74.90;;;;;;5083395;28;19916;-56
2021/05/13 09:57:38;;;;;;;;;;;17.90;70.10;;;;;;5068305;28;20016;-56
2021/05/13 10:00:05;;;;;;;;;;;18.00;69.10;;;;;;5067369;28;19920;-56
2021/05/13 10:02:31;;;;;;;;;;;18.00;66.40;;;;;;5069207;28;20591;-56
2021/05/13 10:04:58;;;;;;;;;;;18.00;62.30;;;;;;5067804;28;20257;-56
2021/05/13 10:07:23;;;;;;;;;;;18.00;62.40;;;;;;5067465;28;20710;-56
2021/05/13 10:09:49;;;;;;;;;;;18.10;61.30;;;;;;5067397;28;19912;-56
2021/05/13 10:12:16;;;;;;;;;;;18.20;63.20;;;;;;5067254;28;19954;-56
2021/05/13 10:14:45;;;;;;;;;;;18.30;61.70;;;;;;5064894;28;20031;-56
2021/05/13 10:17:11;;;;;;;;;;;18.30;61.40;;;;;;5067603;28;19927;-56
2021/05/13 10:19:42;;;;;;;;;;;18.30;59.90;;;;;;5067092;28;20276;-56
2021/05/13 10:22:10;;;;;;;;;;;18.40;59.50;;;;;;5067518;28;20038;-57
2021/05/13 10:24:36;;;;;;;;;;;18.40;57.20;;;;;;5069111;28;19912;-57
2021/05/13 10:27:16;;;;;;;;;;;18.40;57.50;;;;;;5065146;28;20511;-57
2021/05/13 10:29:44;;;;;;;;;;;18.50;56.70;;;;;;5068326;28;20003;-57
2021/05/13 10:32:21;;;;;;;;;;;18.60;56.60;;;;;;5067616;28;19967;-56
2021/05/13 10:34:48;;;;;;;;;;;18.50;57.90;;;;;;5066894;28;19923;-57
2021/05/13 10:37:13;;;;;;;;;;;18.50;57.10;;;;;;5067213;28;20008;-57
2021/05/13 10:40:00;;;;;;;;;;;18.70;58.30;;;;;;5066420;28;19916;-56
2021/05/13 10:42:30;;;;;;;;;;;18.80;57.70;;;;;;5053393;28;19919;-56
2021/05/13 10:44:55;;;;;;;;;;;19.10;55.50;;;;;;5066689;28;19916;-56
2021/05/13 10:47:28;;;;;;;;;;;19.20;56.40;;;;;;5066507;28;19935;-56
2021/05/13 10:49:54;;;;;;;;;;;19.50;53.70;;;;;;5066449;28;19912;-55
2021/05/13 10:52:33;;;;;;;;;;;19.60;54.80;;;;;;5066335;28;20405;-55
2021/05/13 10:55:00;;;;;;;;;;;19.80;54.10;;;;;;5066088;28;19916;-57
2021/05/13 10:57:28;;;;;;;;;;;19.80;53.00;;;;;;5065916;28;19958;-58
2021/05/13 11:00:09;;;;;;;;;;;19.70;52.30;;;;;;5064437;28;20023;-58
2021/05/13 11:02:40;;;;;;;;;;;19.70;53.20;;;;;;5064187;28;20587;-57
2021/05/13 11:05:24;;;;;;;;;;;20.00;53.40;;;;;;5064939;28;19911;-57
2021/05/13 11:07:52;;;;;;;;;;;20.30;53.10;;;;;;5080114;28;19962;-58
2021/05/13 11:10:20;;;;;;;;;;;20.60;51.40;;;;;;5065080;28;19912;-57
2021/05/13 11:12:51;;;;;;;;;;;20.60;51.00;;;;;;5050774;28;19912;-57
2021/05/13 11:15:26;;;;;;;;;;;20.70;51.70;;;;;;5066412;28;19916;-57
2021/05/13 11:17:57;;;;;;;;;;;21.00;51.20;;;;;;5065591;28;19920;-57
2021/05/13 11:20:38;;;;;;;;;;;21.20;51.30;;;;;;5063228;28;19944;-57
2021/05/13 11:23:21;;;;;;;;;;;21.40;50.10;;;;;;5079954;28;19922;-57
2021/05/13 11:25:51;;;;;;;;;;;21.80;49.70;;;;;;5068017;28;20058;-57
2021/05/13 11:28:17;;;;;;;;;;;21.90;50.40;;;;;;5064937;28;21698;-57
2021/05/13 11:30:42;;;;;;;;;;;21.90;50.40;;;;;;5065197;28;19923;-57
2021/05/13 11:33:08;;;;;;;;;;;21.80;49.40;;;;;;5064511;28;20601;-57
2021/05/13 11:35:34;;;;;;;;;;;21.60;49.20;;;;;;5065757;28;19915;-57
2021/05/13 11:38:12;;;;;;;;;;;21.50;49.60;;;;;;5049569;28;20004;-57
2021/05/13 11:40:40;;;;;;;;;;;21.60;49.30;;;;;;5061968;28;20033;-57
2021/05/13 11:43:20;;;;;;;;;;;21.70;49.80;;;;;;5063919;28;19916;-57
2021/05/13 11:45:49;;;;;;;;;;;22.00;49.70;;;;;;5064316;28;19959;-58
2021/05/13 11:48:21;;;;;;;;;;;22.40;49.20;;;;;;5062129;28;21615;-56
2021/05/13 11:50:49;;;;;;;;;;;22.80;47.60;;;;;;5063649;28;19916;-57
2021/05/13 11:53:17;;;;;;;;;;;23.00;48.50;;;;;;5049287;28;19913;-56
2021/05/13 11:55:46;;;;;;;;;;;23.00;46.70;;;;;;5065000;28;20018;-57
2021/05/13 11:58:15;;;;;;;;;;;22.40;46.70;;;;;;5080800;28;19948;-58
2021/05/13 12:00:42;;;;;;;;;;;22.00;47.40;;;;;;5065607;28;19936;-57
2021/05/13 12:03:17;;;;;;;;;;;21.90;49.40;;;;;;5064690;28;20050;-58
2021/05/13 12:05:47;;;;;;;;;;;22.00;49.20;;;;;;5064112;28;19928;-57
2021/05/13 12:08:20;;;;;;;;;;;22.20;48.80;;;;;;5064705;28;19966;-58
2021/05/13 12:10:46;;;;;;;;;;;22.00;48.80;;;;;;5081132;28;19947;-58
2021/05/13 12:13:11;;;;;;;;;;;22.00;49.20;;;;;;5064482;28;20134;-57
2021/05/13 12:15:37;;;;;;;;;;;22.80;48.20;;;;;;5065052;28;19920;-57
2021/05/13 12:18:03;;;;;;;;;;;23.80;46.50;;;;;;5064300;28;19923;-57
2021/05/13 12:20:31;;;;;;;;;;;25.10;44.40;;;;;;5064205;28;19943;-57
2021/05/13 12:22:57;;;;;;;;;;;27.10;41.60;;;;;;5064905;28;19923;-58
2021/05/13 12:25:23;;;;;;;;;;;28.50;39.60;;;;;;5064598;28;19916;-57
2021/05/13 12:27:48;;;;;;;;;;;29.10;38.30;;;;;;5080629;28;20817;-57
2021/05/13 12:30:17;;;;;;;;;;;28.80;37.50;;;;;;5065025;28;20011;-57
2021/05/13 12:32:44;;;;;;;;;;;29.00;39.20;;;;;;5064825;28;19916;-57
2021/05/13 12:35:39;;;;;;;;;;;30.40;38.30;;;;;;5080680;28;19912;-57
2021/05/13 12:38:12;;;;;;;;;;;31.80;35.50;;;;;;5067113;28;19921;-58
2021/05/13 12:40:38;;;;;;;;;;;32.40;34.10;;;;;;5068132;28;20541;-58
2021/05/13 12:43:10;;;;;;;;;;;32.70;33.80;;;;;;5066236;28;19914;-58
2021/05/13 12:45:50;;;;;;;;;;;32.20;32.90;;;;;;5068146;28;20469;-57
2021/05/13 12:48:25;;;;;;;;;;;31.70;34.30;;;;;;5068125;28;19955;-57
2021/05/13 12:50:55;;;;;;;;;;;30.70;34.80;;;;;;5069327;28;20886;-57
2021/05/13 12:53:23;;;;;;;;;;;29.30;35.00;;;;;;5067875;28;19926;-58
2021/05/13 12:55:48;;;;;;;;;;;28.10;36.30;;;;;;5067679;28;19916;-57
2021/05/13 12:58:27;;;;;;;;;;;26.80;37.30;;;;;;5068157;28;19970;-57
2021/05/13 13:00:56;;;;;;;;;;;25.70;39.40;;;;;;5069007;28;19912;-58
2021/05/13 13:03:35;;;;;;;;;;;24.80;41.20;;;;;;5065850;28;20257;-57
2021/05/13 13:06:11;;;;;;;;;;;25.10;40.60;;;;;;5066945;28;20276;-57
2021/05/13 13:08:40;;;;;;;;;;;24.70;40.40;;;;;;5065816;28;19923;-57
2021/05/13 13:11:05;;;;;;;;;;;24.40;42.10;;;;;;5068798;28;19912;-57
2021/05/13 13:13:42;;;;;;;;;;;24.20;42.50;;;;;;5069167;28;20453;-56
2021/05/13 13:16:19;;;;;;;;;;;23.90;42.70;;;;;;5069107;28;19965;-58
2021/05/13 13:18:45;;;;;;;;;;;23.50;43.40;;;;;;5068301;28;20006;-56
2021/05/13 13:21:12;;;;;;;;;;;23.20;43.30;;;;;;5068811;28;20384;-57
2021/05/13 13:23:40;;;;;;;;;;;22.80;43.70;;;;;;5070046;28;20261;-56
2021/05/13 13:26:07;;;;;;;;;;;22.60;44.70;;;;;;5053127;28;20363;-57
2021/05/13 13:28:33;;;;;;;;;;;22.50;43.70;;;;;;5068142;28;19924;-56
2021/05/13 13:31:05;;;;;;;;;;;22.40;44.70;;;;;;5065566;28;19916;-56
2021/05/13 13:33:32;;;;;;;;;;;23.20;44.70;;;;;;5067595;28;19916;-57
2021/05/13 13:36:01;;;;;;;;;;;24.40;41.70;;;;;;5068343;28;19916;-57
2021/05/13 13:38:29;;;;;;;;;;;24.30;41.90;;;;;;5068187;28;20038;-57
2021/05/13 13:40:57;;;;;;;;;;;24.30;42.00;;;;;;5067615;28;20002;-57
2021/05/13 13:43:26;;;;;;;;;;;23.60;42.00;;;;;;5063990;28;20564;-57
2021/05/13 13:45:54;;;;;;;;;;;23.30;43.20;;;;;;5066345;28;19991;-57
2021/05/13 13:48:20;;;;;;;;;;;22.90;44.00;;;;;;5066071;28;19916;-57
2021/05/13 13:50:52;;;;;;;;;;;22.70;45.30;;;;;;5066054;28;19922;-57
2021/05/13 13:53:19;;;;;;;;;;;22.40;44.30;;;;;;5063934;28;19920;-57
2021/05/13 13:55:52;;;;;;;;;;;22.30;45.10;;;;;;5065082;28;19917;-57
2021/05/13 13:58:18;;;;;;;;;;;22.20;46.40;;;;;;5065700;28;19916;-57
2021/05/13 14:00:44;;;;;;;;;;;22.10;45.60;;;;;;5067198;28;19916;-57
2021/05/13 14:03:10;;;;;;;;;;;21.90;45.70;;;;;;5067395;28;20440;-56
2021/05/13 14:05:35;;;;;;;;;;;21.80;45.30;;;;;;5067868;28;19927;-57
2021/05/13 14:08:01;;;;;;;;;;;21.80;45.60;;;;;;5066101;28;19958;-56
2021/05/13 14:10:28;;;;;;;;;;;21.60;46.70;;;;;;5067380;28;19916;-57
2021/05/13 14:12:57;;;;;;;;;;;21.60;47.60;;;;;;5066920;28;19916;-57
2021/05/13 14:15:22;;;;;;;;;;;21.40;48.20;;;;;;5066718;28;19960;-57
2021/05/13 14:17:48;;;;;;;;;;;21.00;49.00;;;;;;5067654;28;20325;-57
2021/05/13 14:20:14;;;;;;;;;;;20.90;49.50;;;;;;5067845;28;20293;-56
2021/05/13 14:22:41;;;;;;;;;;;20.70;49.60;;;;;;5067172;28;19912;-56
2021/05/13 14:25:09;;;;;;;;;;;20.50;51.30;;;;;;5067525;28;20747;-56
2021/05/13 14:27:35;;;;;;;;;;;20.30;52.60;;;;;;5066130;28;19908;-56
2021/05/13 14:30:01;;;;;;;;;;;19.90;53.90;;;;;;5066817;28;20372;-56
2021/05/13 14:32:26;;;;;;;;;;;19.40;56.10;;;;;;5066117;28;20288;-55